sensor_id;sensor_type;location;lat;lon;timestamp;temperature;humidity
2757;DHT22;1386;50.862;6.494;2022-12-07T07:11:23;4.30;99.90
2757;DHT22;1386;50.862;6.494;2022-12-07T07:13:50;4.30;99.90
2757;DHT22;1386;50.862;6.494;2022-12-07T07:16:18;4.20;99.90
2757;DHT22;1386;50.862;6.494;2022-12-07T07:18:45;4.20;99.90
2757;DHT22;1386;50.862;6.494;2022-12-07T07:21:12;4.20;99.90
2757;DHT22;1386;50.862;6.494;2022-12-07T07:23:38;4.20;99.90
2757;DHT22;1386;50.862;6.494;2022-12-07T07:26:05;4.20;99.90
2757;DHT22;1386;50.862;6.494;2022-12-07T07:28:33;4.20;99.90
2757;DHT22;1386;50.862;6.494;2022-12-07T07:31:00;4.20;99.90
2757;DHT22;1386;50.862;6.494;2022-12-07T07:33:27;4.20;99.90
2757;DHT22;1386;50.862;6.494;2022-12-07T07:35:54;4.20;99.90
2757;DHT22;1386;50.862;6.494;2022-12-07T07:38:21;4.20;99.90
2757;DHT22;1386;50.862;6.494;2022-12-07T07:40:48;4.20;99.90
2757;DHT22;1386;50.862;6.494;2022-12-07T07:43:15;4.30;99.90
2757;DHT22;1386;50.862;6.494;2022-12-07T07:45:44;4.30;99.90
2757;DHT22;1386;50.862;6.494;2022-12-07T07:48:11;4.20;99.90
2757;DHT22;1386;50.862;6.494;2022-12-07T07:50:38;4.30;99.90
2757;DHT22;1386;50.862;6.494;2022-12-07T07:53:05;4.30;99.90
2757;DHT22;1386;50.862;6.494;2022-12-07T07:55:31;4.30;99.90
2757;DHT22;1386;50.862;6.494;2022-12-07T07:57:58;4.30;99.90
2757;DHT22;1386;50.862;6.494;2022-12-07T08:00:25;4.30;99.90
2757;DHT22;1386;50.862;6.494;2022-12-07T08:02:54;4.30;99.90
2757;DHT22;1386;50.862;6.494;2022-12-07T08:05:21;4.40;99.90
2757;DHT22;1386;50.862;6.494;2022-12-07T08:07:48;4.30;99.90
2757;DHT22;1386;50.862;6.494;2022-12-07T08:10:14;4.30;99.90
2757;DHT22;1386;50.862;6.494;2022-12-07T08:12:42;4.30;99.90
2757;DHT22;1386;50.862;6.494;2022-12-07T08:15:25;4.30;99.90
2757;DHT22;1386;50.862;6.494;2022-12-07T08:17:52;4.40;99.90
2757;DHT22;1386;50.862;6.494;2022-12-07T08:20:20;4.40;99.90
2757;DHT22;1386;50.862;6.494;2022-12-07T08:22:47;4.40;99.90
2757;DHT22;1386;50.862;6.494;2022-12-07T08:25:14;4.40;99.90
2757;DHT22;1386;50.862;6.494;2022-12-07T08:27:41;4.40;99.90
2757;DHT22;1386;50.862;6.494;2022-12-07T08:30:08;4.40;99.90
2757;DHT22;1386;50.862;6.494;2022-12-07T08:32:35;4.40;99.90
2757;DHT22;1386;50.862;6.494;2022-12-07T08:35:02;4.50;99.90
2757;DHT22;1386;50.862;6.494;2022-12-07T08:37:31;4.50;99.90
2757;DHT22;1386;50.862;6.494;2022-12-07T08:39:58;4.50;99.90
2757;DHT22;1386;50.862;6.494;2022-12-07T08:42:25;4.50;99.90
2757;DHT22;1386;50.862;6.494;2022-12-07T08:44:55;4.50;99.90
2757;DHT22;1386;50.862;6.494;2022-12-07T08:47:23;4.50;99.90
2757;DHT22;1386;50.862;6.494;2022-12-07T08:49:50;4.50;99.90
2757;DHT22;1386;50.862;6.494;2022-12-07T08:52:18;4.50;99.90
2757;DHT22;1386;50.862;6.494;2022-12-07T08:54:47;4.50;99.90
2757;DHT22;1386;50.862;6.494;2022-12-07T08:57:14;4.50;99.90
2757;DHT22;1386;50.862;6.494;2022-12-07T08:59:41;4.60;99.90
2757;DHT22;1386;50.862;6.494;2022-12-07T09:02:07;4.60;99.90
2757;DHT22;1386;50.862;6.494;2022-12-07T09:04:34;4.70;99.90
2757;DHT22;1386;50.862;6.494;2022-12-07T09:07:01;4.70;99.90
2757;DHT22;1386;50.862;6.494;2022-12-07T09:09:28;4.70;99.90
2757;DHT22;1386;50.862;6.494;2022-12-07T09:11:56;4.80;99.90
2757;DHT22;1386;50.862;6.494;2022-12-07T09:14:23;4.80;99.90
2757;DHT22;1386;50.862;6.494;2022-12-07T09:16:50;4.70;99.90
2757;DHT22;1386;50.862;6.494;2022-12-07T09:19:17;4.70;99.90
2757;DHT22;1386;50.862;6.494;2022-12-07T09:21:44;4.80;99.90
2757;DHT22;1386;50.862;6.494;2022-12-07T09:24:11;4.80;99.90
2757;DHT22;1386;50.862;6.494;2022-12-07T09:26:38;4.90;99.90
2757;DHT22;1386;50.862;6.494;2022-12-07T09:29:07;5.00;99.90
2757;DHT22;1386;50.862;6.494;2022-12-07T09:31:36;5.00;99.90
2757;DHT22;1386;50.862;6.494;2022-12-07T09:34:03;5.10;99.90
2757;DHT22;1386;50.862;6.494;2022-12-07T09:36:30;5.20;99.90
2757;DHT22;1386;50.862;6.494;2022-12-07T09:38:57;5.20;99.90
2757;DHT22;1386;50.862;6.494;2022-12-07T09:41:25;5.30;99.90
2757;DHT22;1386;50.862;6.494;2022-12-07T09:43:53;5.30;99.90
2757;DHT22;1386;50.862;6.494;2022-12-07T09:46:26;5.40;99.90
2757;DHT22;1386;50.862;6.494;2022-12-07T09:48:53;5.40;99.90
2757;DHT22;1386;50.862;6.494;2022-12-07T09:51:21;5.40;99.90
2757;DHT22;1386;50.862;6.494;2022-12-07T09:53:48;5.30;99.90
2757;DHT22;1386;50.862;6.494;2022-12-07T09:56:17;5.30;99.90
2757;DHT22;1386;50.862;6.494;2022-12-07T09:58:46;5.30;99.90
2757;DHT22;1386;50.862;6.494;2022-12-07T10:01:14;5.40;99.90
2757;DHT22;1386;50.862;6.494;2022-12-07T10:03:48;5.40;99.90
2757;DHT22;1386;50.862;6.494;2022-12-07T10:06:16;5.50;99.90
2757;DHT22;1386;50.862;6.494;2022-12-07T10:08:43;5.60;99.90
2757;DHT22;1386;50.862;6.494;2022-12-07T10:11:10;5.70;99.90
2757;DHT22;1386;50.862;6.494;2022-12-07T10:13:39;5.90;99.90
2757;DHT22;1386;50.862;6.494;2022-12-07T10:16:08;5.90;99.90
2757;DHT22;1386;50.862;6.494;2022-12-07T10:18:55;5.90;99.90
2757;DHT22;1386;50.862;6.494;2022-12-07T10:21:23;5.90;99.90
2757;DHT22;1386;50.862;6.494;2022-12-07T10:24:00;5.80;99.90
2757;DHT22;1386;50.862;6.494;2022-12-07T10:26:31;5.90;99.90
2757;DHT22;1386;50.862;6.494;2022-12-07T10:29:00;5.90;99.90
2757;DHT22;1386;50.862;6.494;2022-12-07T10:31:28;5.90;99.90
2757;DHT22;1386;50.862;6.494;2022-12-07T10:33:58;5.90;99.90
2757;DHT22;1386;50.862;6.494;2022-12-07T10:36:26;5.90;99.90
2757;DHT22;1386;50.862;6.494;2022-12-07T10:39:00;5.90;99.90
2757;DHT22;1386;50.862;6.494;2022-12-07T10:41:28;5.90;99.90
2757;DHT22;1386;50.862;6.494;2022-12-07T10:43:56;5.80;99.90
2757;DHT22;1386;50.862;6.494;2022-12-07T10:46:43;5.80;99.90
2757;DHT22;1386;50.862;6.494;2022-12-07T10:52:43;5.70;99.90
2757;DHT22;1386;50.862;6.494;2022-12-07T10:55:19;5.70;99.90
2757;DHT22;1386;50.862;6.494;2022-12-07T10:58:00;5.70;99.90
2757;DHT22;1386;50.862;6.494;2022-12-07T11:00:31;5.70;99.90
2757;DHT22;1386;50.862;6.494;2022-12-07T11:03:17;5.70;99.90
2757;DHT22;1386;50.862;6.494;2022-12-07T11:05:53;5.70;99.90
2757;DHT22;1386;50.862;6.494;2022-12-07T11:08:33;5.70;99.90
2757;DHT22;1386;50.862;6.494;2022-12-07T11:11:08;5.60;99.90
2757;DHT22;1386;50.862;6.494;2022-12-07T11:13:40;5.60;99.90
2757;DHT22;1386;50.862;6.494;2022-12-07T11:16:21;5.60;99.90
2757;DHT22;1386;50.862;6.494;2022-12-07T11:18:59;5.70;99.90
2757;DHT22;1386;50.862;6.494;2022-12-07T11:21:32;5.80;99.90
2757;DHT22;1386;50.862;6.494;2022-12-07T11:24:06;5.90;99.90
2757;DHT22;1386;50.862;6.494;2022-12-07T11:26:45;5.90;99.90
2757;DHT22;1386;50.862;6.494;2022-12-07T11:32:14;5.80;99.90
2757;DHT22;1386;50.862;6.494;2022-12-07T11:34:51;5.80;99.90
2757;DHT22;1386;50.862;6.494;2022-12-07T11:37:27;5.80;99.90
2757;DHT22;1386;50.862;6.494;2022-12-07T11:40:00;5.70;99.90
2757;DHT22;1386;50.862;6.494;2022-12-07T11:42:31;5.70;99.90
2757;DHT22;1386;50.862;6.494;2022-12-07T11:45:02;5.70;99.90
2757;DHT22;1386;50.862;6.494;2022-12-07T11:47:35;5.70;99.90
2757;DHT22;1386;50.862;6.494;2022-12-07T11:50:13;5.80;99.90
2757;DHT22;1386;50.862;6.494;2022-12-07T11:52:48;5.80;99.90
2757;DHT22;1386;50.862;6.494;2022-12-07T11:55:28;5.90;99.90
2757;DHT22;1386;50.862;6.494;2022-12-07T11:58:03;6.00;99.90
2757;DHT22;1386;50.862;6.494;2022-12-07T12:00:33;6.00;99.90
2757;DHT22;1386;50.862;6.494;2022-12-07T12:03:17;6.00;99.90
2757;DHT22;1386;50.862;6.494;2022-12-07T12:05:47;6.00;99.90
2757;DHT22;1386;50.862;6.494;2022-12-07T12:08:23;6.00;99.90
2757;DHT22;1386;50.862;6.494;2022-12-07T12:10:56;6.00;99.90
2757;DHT22;1386;50.862;6.494;2022-12-07T12:13:48;6.00;99.90
2757;DHT22;1386;50.862;6.494;2022-12-07T12:16:44;5.90;99.90
2757;DHT22;1386;50.862;6.494;2022-12-07T12:19:26;5.90;99.90
2757;DHT22;1386;50.862;6.494;2022-12-07T12:22:05;5.90;99.90
2757;DHT22;1386;50.862;6.494;2022-12-07T12:24:38;5.90;99.90
2757;DHT22;1386;50.862;6.494;2022-12-07T12:27:09;6.00;99.90
2757;DHT22;1386;50.862;6.494;2022-12-07T12:29:38;5.90;99.90
2757;DHT22;1386;50.862;6.494;2022-12-07T12:32:12;5.90;99.90
2757;DHT22;1386;50.862;6.494;2022-12-07T12:34:42;5.80;99.90
2757;DHT22;1386;50.862;6.494;2022-12-07T12:37:45;5.80;99.90
2757;DHT22;1386;50.862;6.494;2022-12-07T12:40:42;5.80;99.90
2757;DHT22;1386;50.862;6.494;2022-12-07T12:43:41;5.80;99.90
2757;DHT22;1386;50.862;6.494;2022-12-07T12:46:37;5.90;99.90
2757;DHT22;1386;50.862;6.494;2022-12-07T12:55:17;6.50;99.90
2757;DHT22;1386;50.862;6.494;2022-12-07T13:03:54;6.30;99.90
2757;DHT22;1386;50.862;6.494;2022-12-07T13:06:34;6.30;99.90
2757;DHT22;1386;50.862;6.494;2022-12-07T13:09:03;6.20;99.90
2757;DHT22;1386;50.862;6.494;2022-12-07T13:11:33;6.20;99.90
2757;DHT22;1386;50.862;6.494;2022-12-07T13:14:40;6.20;99.90
2757;DHT22;1386;50.862;6.494;2022-12-07T13:17:09;6.20;99.90
2757;DHT22;1386;50.862;6.494;2022-12-07T13:19:57;6.20;99.90
2757;DHT22;1386;50.862;6.494;2022-12-07T13:22:50;6.20;99.90
2757;DHT22;1386;50.862;6.494;2022-12-07T13:25:23;6.20;99.90
2757;DHT22;1386;50.862;6.494;2022-12-07T13:27:57;6.20;99.90
2757;DHT22;1386;50.862;6.494;2022-12-07T13:30:30;6.20;99.90
2757;DHT22;1386;50.862;6.494;2022-12-07T13:33:12;6.20;99.90
2757;DHT22;1386;50.862;6.494;2022-12-07T13:35:39;6.10;99.90
2757;DHT22;1386;50.862;6.494;2022-12-07T13:38:25;6.10;99.90
2757;DHT22;1386;50.862;6.494;2022-12-07T13:41:02;6.10;99.90
2757;DHT22;1386;50.862;6.494;2022-12-07T13:43:30;6.00;99.90
2757;DHT22;1386;50.862;6.494;2022-12-07T13:46:09;6.00;99.90
2757;DHT22;1386;50.862;6.494;2022-12-07T13:48:44;6.00;99.90
2757;DHT22;1386;50.862;6.494;2022-12-07T13:51:18;6.00;99.90
2757;DHT22;1386;50.862;6.494;2022-12-07T13:53:47;6.00;99.90
2757;DHT22;1386;50.862;6.494;2022-12-07T13:56:14;6.00;99.90
2757;DHT22;1386;50.862;6.494;2022-12-07T13:58:41;6.00;99.90
2757;DHT22;1386;50.862;6.494;2022-12-07T14:01:16;6.00;99.90
2757;DHT22;1386;50.862;6.494;2022-12-07T14:03:44;6.00;99.90
2757;DHT22;1386;50.862;6.494;2022-12-07T14:06:17;6.00;99.90
2757;DHT22;1386;50.862;6.494;2022-12-07T14:08:45;6.00;99.90
2757;DHT22;1386;50.862;6.494;2022-12-07T14:11:17;6.00;99.90
2757;DHT22;1386;50.862;6.494;2022-12-07T14:13:51;6.00;99.90
2757;DHT22;1386;50.862;6.494;2022-12-07T14:16:26;6.00;99.90
2757;DHT22;1386;50.862;6.494;2022-12-07T14:18:55;6.00;99.90
2757;DHT22;1386;50.862;6.494;2022-12-07T14:21:24;6.00;99.90
2757;DHT22;1386;50.862;6.494;2022-12-07T14:24:15;6.00;99.90
2757;DHT22;1386;50.862;6.494;2022-12-07T14:26:43;6.00;99.90
2757;DHT22;1386;50.862;6.494;2022-12-07T14:29:31;6.00;99.90
2757;DHT22;1386;50.862;6.494;2022-12-07T14:32:20;5.90;99.90
2757;DHT22;1386;50.862;6.494;2022-12-07T14:35:07;5.90;99.90
2757;DHT22;1386;50.862;6.494;2022-12-07T14:37:46;5.90;99.90
2757;DHT22;1386;50.862;6.494;2022-12-07T14:40:16;5.80;99.90
2757;DHT22;1386;50.862;6.494;2022-12-07T14:43:09;5.80;99.90
